sensor_id;sensor_type;location;lat;lon;timestamp;P1;durP1;ratioP1;P2;durP2;ratioP2
2710;SDS011;20721;47.402;8.550;2022-11-15T00:00:05;5.79;;;5.79;;
2710;SDS011;20721;47.402;8.550;2022-11-15T00:01:06;5.56;;;5.56;;
2710;SDS011;20721;47.402;8.550;2022-11-15T00:02:05;5.42;;;5.42;;
2710;SDS011;20721;47.402;8.550;2022-11-15T00:03:05;5.62;;;5.61;;
2710;SDS011;20721;47.402;8.550;2022-11-15T00:04:05;5.26;;;5.26;;
2710;SDS011;20721;47.402;8.550;2022-11-15T00:05:05;5.03;;;5.03;;
2710;SDS011;20721;47.402;8.550;2022-11-15T00:06:10;6.29;;;6.29;;
2710;SDS011;20721;47.402;8.550;2022-11-15T00:07:05;6.29;;;6.29;;
2710;SDS011;20721;47.402;8.550;2022-11-15T00:08:06;5.21;;;5.21;;
2710;SDS011;20721;47.402;8.550;2022-11-15T00:09:07;6.50;;;6.50;;
2710;SDS011;20721;47.402;8.550;2022-11-15T00:10:05;7.13;;;7.13;;
2710;SDS011;20721;47.402;8.550;2022-11-15T00:11:08;7.67;;;7.67;;
2710;SDS011;20721;47.402;8.550;2022-11-15T00:12:05;6.83;;;6.83;;
2710;SDS011;20721;47.402;8.550;2022-11-15T00:13:06;6.76;;;6.76;;
2710;SDS011;20721;47.402;8.550;2022-11-15T00:15:05;7.70;;;7.70;;
2710;SDS011;20721;47.402;8.550;2022-11-15T00:16:08;7.92;;;7.92;;
2710;SDS011;20721;47.402;8.550;2022-11-15T00:17:05;8.43;;;8.43;;
2710;SDS011;20721;47.402;8.550;2022-11-15T00:18:06;8.44;;;8.44;;
2710;SDS011;20721;47.402;8.550;2022-11-15T00:19:07;8.72;;;8.72;;
2710;SDS011;20721;47.402;8.550;2022-11-15T00:20:05;8.23;;;8.23;;
2710;SDS011;20721;47.402;8.550;2022-11-15T00:21:07;8.48;;;8.48;;
2710;SDS011;20721;47.402;8.550;2022-11-15T00:22:05;8.50;;;8.50;;
2710;SDS011;20721;47.402;8.550;2022-11-15T00:24:05;8.44;;;8.44;;
2710;SDS011;20721;47.402;8.550;2022-11-15T00:25:05;8.89;;;8.74;;
2710;SDS011;20721;47.402;8.550;2022-11-15T00:26:06;8.77;;;8.59;;
2710;SDS011;20721;47.402;8.550;2022-11-15T00:27:05;9.44;;;9.28;;
2710;SDS011;20721;47.402;8.550;2022-11-15T00:28:06;7.38;;;7.33;;
2710;SDS011;20721;47.402;8.550;2022-11-15T00:29:05;8.86;;;8.53;;
2710;SDS011;20721;47.402;8.550;2022-11-15T00:30:05;8.98;;;8.69;;
2710;SDS011;20721;47.402;8.550;2022-11-15T00:31:15;8.50;;;8.37;;
2710;SDS011;20721;47.402;8.550;2022-11-15T00:32:05;8.50;;;8.37;;
2710;SDS011;20721;47.402;8.550;2022-11-15T00:33:06;7.99;;;7.87;;
2710;SDS011;20721;47.402;8.550;2022-11-15T00:34:05;8.45;;;8.20;;
2710;SDS011;20721;47.402;8.550;2022-11-15T00:35:05;9.29;;;8.86;;
2710;SDS011;20721;47.402;8.550;2022-11-15T00:36:09;9.63;;;9.03;;
2710;SDS011;20721;47.402;8.550;2022-11-15T00:37:05;10.23;;;9.41;;
2710;SDS011;20721;47.402;8.550;2022-11-15T00:38:05;7.83;;;7.29;;
2710;SDS011;20721;47.402;8.550;2022-11-15T00:40:06;8.88;;;8.54;;
2710;SDS011;20721;47.402;8.550;2022-11-15T00:41:06;8.12;;;7.92;;
2710;SDS011;20721;47.402;8.550;2022-11-15T00:42:05;8.19;;;8.11;;
2710;SDS011;20721;47.402;8.550;2022-11-15T00:43:05;8.41;;;8.40;;
2710;SDS011;20721;47.402;8.550;2022-11-15T00:44:05;7.97;;;7.95;;
2710;SDS011;20721;47.402;8.550;2022-11-15T00:45:05;9.07;;;8.89;;
2710;SDS011;20721;47.402;8.550;2022-11-15T00:46:05;8.01;;;7.99;;
2710;SDS011;20721;47.402;8.550;2022-11-15T00:47:05;8.38;;;8.33;;
2710;SDS011;20721;47.402;8.550;2022-11-15T00:48:05;8.24;;;8.10;;
2710;SDS011;20721;47.402;8.550;2022-11-15T00:49:05;8.92;;;8.67;;
2710;SDS011;20721;47.402;8.550;2022-11-15T00:50:05;8.75;;;8.51;;
2710;SDS011;20721;47.402;8.550;2022-11-15T00:52:05;7.96;;;7.77;;
2710;SDS011;20721;47.402;8.550;2022-11-15T00:53:05;8.47;;;8.47;;
2710;SDS011;20721;47.402;8.550;2022-11-15T00:54:05;8.26;;;8.23;;
2710;SDS011;20721;47.402;8.550;2022-11-15T00:56:05;8.02;;;8.02;;
2710;SDS011;20721;47.402;8.550;2022-11-15T00:57:05;8.24;;;8.24;;
2710;SDS011;20721;47.402;8.550;2022-11-15T00:58:05;7.65;;;7.65;;
2710;SDS011;20721;47.402;8.550;2022-11-15T00:59:05;8.08;;;8.08;;
2710;SDS011;20721;47.402;8.550;2022-11-15T01:00:06;7.18;;;7.18;;
2710;SDS011;20721;47.402;8.550;2022-11-15T01:01:07;8.00;;;8.00;;
2710;SDS011;20721;47.402;8.550;2022-11-15T01:02:05;8.04;;;8.03;;
2710;SDS011;20721;47.402;8.550;2022-11-15T01:03:05;8.49;;;8.49;;
2710;SDS011;20721;47.402;8.550;2022-11-15T01:04:11;7.09;;;7.09;;
2710;SDS011;20721;47.402;8.550;2022-11-15T01:06:08;7.60;;;7.60;;
2710;SDS011;20721;47.402;8.550;2022-11-15T01:07:05;7.25;;;7.25;;
2710;SDS011;20721;47.402;8.550;2022-11-15T01:08:06;7.25;;;7.24;;
2710;SDS011;20721;47.402;8.550;2022-11-15T01:09:05;7.84;;;7.83;;
2710;SDS011;20721;47.402;8.550;2022-11-15T01:10:05;7.42;;;7.42;;
2710;SDS011;20721;47.402;8.550;2022-11-15T01:11:10;7.66;;;7.59;;
2710;SDS011;20721;47.402;8.550;2022-11-15T01:12:05;7.66;;;7.59;;
2710;SDS011;20721;47.402;8.550;2022-11-15T01:13:05;7.30;;;7.30;;
2710;SDS011;20721;47.402;8.550;2022-11-15T01:14:05;6.96;;;6.96;;
2710;SDS011;20721;47.402;8.550;2022-11-15T01:15:06;7.72;;;7.68;;
2710;SDS011;20721;47.402;8.550;2022-11-15T01:16:06;7.60;;;7.60;;
2710;SDS011;20721;47.402;8.550;2022-11-15T01:17:05;7.14;;;7.14;;
2710;SDS011;20721;47.402;8.550;2022-11-15T01:18:05;6.06;;;6.06;;
2710;SDS011;20721;47.402;8.550;2022-11-15T01:19:05;6.33;;;6.33;;
2710;SDS011;20721;47.402;8.550;2022-11-15T01:20:06;6.40;;;6.40;;
2710;SDS011;20721;47.402;8.550;2022-11-15T01:21:07;6.32;;;6.32;;
2710;SDS011;20721;47.402;8.550;2022-11-15T01:22:05;6.34;;;6.34;;
2710;SDS011;20721;47.402;8.550;2022-11-15T01:23:05;5.97;;;5.97;;
2710;SDS011;20721;47.402;8.550;2022-11-15T01:24:07;6.26;;;6.26;;
2710;SDS011;20721;47.402;8.550;2022-11-15T01:25:05;5.18;;;5.18;;
2710;SDS011;20721;47.402;8.550;2022-11-15T01:26:10;5.25;;;5.25;;
2710;SDS011;20721;47.402;8.550;2022-11-15T01:27:05;5.25;;;5.25;;
2710;SDS011;20721;47.402;8.550;2022-11-15T01:28:05;5.27;;;5.27;;
2710;SDS011;20721;47.402;8.550;2022-11-15T01:29:05;5.33;;;5.33;;
2710;SDS011;20721;47.402;8.550;2022-11-15T01:30:06;4.74;;;4.74;;
2710;SDS011;20721;47.402;8.550;2022-11-15T01:31:10;5.01;;;5.01;;
2710;SDS011;20721;47.402;8.550;2022-11-15T01:32:06;4.96;;;4.96;;
2710;SDS011;20721;47.402;8.550;2022-11-15T01:33:05;5.02;;;5.02;;
2710;SDS011;20721;47.402;8.550;2022-11-15T01:34:05;4.94;;;4.94;;
2710;SDS011;20721;47.402;8.550;2022-11-15T01:35:05;4.16;;;4.16;;
2710;SDS011;20721;47.402;8.550;2022-11-15T01:36:06;4.90;;;4.90;;
2710;SDS011;20721;47.402;8.550;2022-11-15T01:37:05;4.95;;;4.95;;
2710;SDS011;20721;47.402;8.550;2022-11-15T01:38:05;4.78;;;4.78;;
2710;SDS011;20721;47.402;8.550;2022-11-15T01:39:07;4.65;;;4.65;;
2710;SDS011;20721;47.402;8.550;2022-11-15T01:40:05;4.92;;;4.92;;
2710;SDS011;20721;47.402;8.550;2022-11-15T01:41:06;5.63;;;5.63;;
2710;SDS011;20721;47.402;8.550;2022-11-15T01:42:08;4.92;;;4.92;;
2710;SDS011;20721;47.402;8.550;2022-11-15T01:45:07;5.64;;;5.64;;
2710;SDS011;20721;47.402;8.550;2022-11-15T01:47:08;5.43;;;5.43;;
2710;SDS011;20721;47.402;8.550;2022-11-15T01:48:07;4.99;;;4.99;;
2710;SDS011;20721;47.402;8.550;2022-11-15T01:50:08;5.05;;;5.05;;
2710;SDS011;20721;47.402;8.550;2022-11-15T01:51:07;5.05;;;5.05;;
2710;SDS011;20721;47.402;8.550;2022-11-15T01:52:09;5.79;;;5.79;;
2710;SDS011;20721;47.402;8.550;2022-11-15T01:53:06;5.18;;;5.18;;
2710;SDS011;20721;47.402;8.550;2022-11-15T01:54:09;5.04;;;5.04;;
2710;SDS011;20721;47.402;8.550;2022-11-15T01:56:06;4.92;;;4.92;;
2710;SDS011;20721;47.402;8.550;2022-11-15T01:57:09;5.84;;;5.84;;
2710;SDS011;20721;47.402;8.550;2022-11-15T01:58:09;5.35;;;5.35;;
2710;SDS011;20721;47.402;8.550;2022-11-15T01:59:07;4.93;;;4.93;;
2710;SDS011;20721;47.402;8.550;2022-11-15T02:00:07;4.60;;;4.60;;
2710;SDS011;20721;47.402;8.550;2022-11-15T02:01:06;4.23;;;4.23;;
2710;SDS011;20721;47.402;8.550;2022-11-15T02:02:06;4.75;;;4.75;;
2710;SDS011;20721;47.402;8.550;2022-11-15T02:03:06;5.24;;;5.24;;
2710;SDS011;20721;47.402;8.550;2022-11-15T02:04:15;4.38;;;4.38;;
2710;SDS011;20721;47.402;8.550;2022-11-15T02:06:06;4.31;;;4.31;;
2710;SDS011;20721;47.402;8.550;2022-11-15T02:07:06;4.77;;;4.77;;
2710;SDS011;20721;47.402;8.550;2022-11-15T02:08:06;4.21;;;4.21;;
2710;SDS011;20721;47.402;8.550;2022-11-15T02:09:06;4.60;;;4.60;;
2710;SDS011;20721;47.402;8.550;2022-11-15T02:13:06;4.69;;;4.69;;
2710;SDS011;20721;47.402;8.550;2022-11-15T02:15:06;4.26;;;4.26;;
2710;SDS011;20721;47.402;8.550;2022-11-15T02:18:22;4.48;;;4.48;;
2710;SDS011;20721;47.402;8.550;2022-11-15T02:19:29;4.48;;;4.48;;
2710;SDS011;20721;47.402;8.550;2022-11-15T02:20:13;4.96;;;4.96;;
2710;SDS011;20721;47.402;8.550;2022-11-15T02:25:10;4.60;;;4.60;;
2710;SDS011;20721;47.402;8.550;2022-11-15T02:27:26;4.97;;;4.97;;
2710;SDS011;20721;47.402;8.550;2022-11-15T02:32:15;5.56;;;5.56;;
2710;SDS011;20721;47.402;8.550;2022-11-15T02:36:30;5.46;;;5.46;;
2710;SDS011;20721;47.402;8.550;2022-11-15T02:37:16;6.07;;;6.07;;
2710;SDS011;20721;47.402;8.550;2022-11-15T02:38:08;6.07;;;6.07;;
2710;SDS011;20721;47.402;8.550;2022-11-15T02:39:21;5.46;;;5.46;;
2710;SDS011;20721;47.402;8.550;2022-11-15T02:41:10;6.10;;;6.10;;
2710;SDS011;20721;47.402;8.550;2022-11-15T02:43:23;6.40;;;6.40;;
2710;SDS011;20721;47.402;8.550;2022-11-15T02:45:07;5.39;;;5.39;;
2710;SDS011;20721;47.402;8.550;2022-11-15T02:46:17;5.93;;;5.93;;
2710;SDS011;20721;47.402;8.550;2022-11-15T02:47:17;5.55;;;5.55;;
2710;SDS011;20721;47.402;8.550;2022-11-15T02:48:08;5.55;;;5.55;;
2710;SDS011;20721;47.402;8.550;2022-11-15T02:49:06;5.67;;;5.67;;
2710;SDS011;20721;47.402;8.550;2022-11-15T02:50:09;5.99;;;5.99;;
2710;SDS011;20721;47.402;8.550;2022-11-15T02:51:06;5.16;;;5.16;;
2710;SDS011;20721;47.402;8.550;2022-11-15T02:52:06;5.37;;;5.37;;
2710;SDS011;20721;47.402;8.550;2022-11-15T02:53:07;5.76;;;5.76;;
2710;SDS011;20721;47.402;8.550;2022-11-15T02:54:06;5.51;;;5.51;;
2710;SDS011;20721;47.402;8.550;2022-11-15T02:55:25;5.47;;;5.47;;
2710;SDS011;20721;47.402;8.550;2022-11-15T02:56:07;5.59;;;5.59;;
2710;SDS011;20721;47.402;8.550;2022-11-15T02:57:12;5.48;;;5.48;;
2710;SDS011;20721;47.402;8.550;2022-11-15T03:00:07;5.55;;;5.55;;
2710;SDS011;20721;47.402;8.550;2022-11-15T03:06:20;5.58;;;5.58;;
2710;SDS011;20721;47.402;8.550;2022-11-15T03:07:12;5.94;;;5.94;;
2710;SDS011;20721;47.402;8.550;2022-11-15T03:08:37;6.33;;;6.31;;
2710;SDS011;20721;47.402;8.550;2022-11-15T03:11:14;5.38;;;5.38;;
2710;SDS011;20721;47.402;8.550;2022-11-15T03:14:12;5.72;;;5.72;;
2710;SDS011;20721;47.402;8.550;2022-11-15T03:15:18;5.35;;;5.35;;
2710;SDS011;20721;47.402;8.550;2022-11-15T03:17:18;5.50;;;5.50;;
2710;SDS011;20721;47.402;8.550;2022-11-15T03:18:13;6.06;;;6.06;;
2710;SDS011;20721;47.402;8.550;2022-11-15T03:19:13;6.18;;;6.18;;
2710;SDS011;20721;47.402;8.550;2022-11-15T03:20:08;6.18;;;6.18;;
2710;SDS011;20721;47.402;8.550;2022-11-15T03:21:08;5.85;;;5.85;;
2710;SDS011;20721;47.402;8.550;2022-11-15T03:22:10;5.01;;;5.01;;
2710;SDS011;20721;47.402;8.550;2022-11-15T03:23:10;5.44;;;5.44;;
2710;SDS011;20721;47.402;8.550;2022-11-15T03:25:09;6.47;;;6.47;;
2710;SDS011;20721;47.402;8.550;2022-11-15T03:26:08;5.45;;;5.45;;
2710;SDS011;20721;47.402;8.550;2022-11-15T03:27:07;5.83;;;5.83;;
2710;SDS011;20721;47.402;8.550;2022-11-15T03:28:11;5.81;;;5.81;;
2710;SDS011;20721;47.402;8.550;2022-11-15T03:29:12;6.47;;;6.47;;
2710;SDS011;20721;47.402;8.550;2022-11-15T03:30:09;6.47;;;6.47;;
2710;SDS011;20721;47.402;8.550;2022-11-15T03:33:07;5.60;;;5.60;;
2710;SDS011;20721;47.402;8.550;2022-11-15T03:34:09;5.83;;;5.83;;
2710;SDS011;20721;47.402;8.550;2022-11-15T03:36:06;5.40;;;5.40;;
2710;SDS011;20721;47.402;8.550;2022-11-15T03:37:06;6.02;;;6.02;;
2710;SDS011;20721;47.402;8.550;2022-11-15T03:38:25;5.46;;;5.46;;
2710;SDS011;20721;47.402;8.550;2022-11-15T03:39:09;5.57;;;5.57;;
2710;SDS011;20721;47.402;8.550;2022-11-15T03:40:06;5.75;;;5.75;;
2710;SDS011;20721;47.402;8.550;2022-11-15T03:41:14;5.44;;;5.44;;
2710;SDS011;20721;47.402;8.550;2022-11-15T03:43:25;5.34;;;5.34;;
2710;SDS011;20721;47.402;8.550;2022-11-15T03:49:15;5.77;;;5.77;;
2710;SDS011;20721;47.402;8.550;2022-11-15T03:50:11;5.77;;;5.77;;
2710;SDS011;20721;47.402;8.550;2022-11-15T03:51:06;5.94;;;5.94;;
2710;SDS011;20721;47.402;8.550;2022-11-15T03:52:07;6.22;;;6.22;;
2710;SDS011;20721;47.402;8.550;2022-11-15T03:53:07;6.14;;;6.14;;
2710;SDS011;20721;47.402;8.550;2022-11-15T03:55:08;6.20;;;6.20;;
2710;SDS011;20721;47.402;8.550;2022-11-15T03:56:06;6.64;;;6.64;;
2710;SDS011;20721;47.402;8.550;2022-11-15T03:57:06;7.36;;;7.36;;
2710;SDS011;20721;47.402;8.550;2022-11-15T03:58:08;6.89;;;6.89;;
2710;SDS011;20721;47.402;8.550;2022-11-15T04:00:06;6.01;;;5.98;;
2710;SDS011;20721;47.402;8.550;2022-11-15T04:01:06;6.58;;;6.55;;
2710;SDS011;20721;47.402;8.550;2022-11-15T04:02:06;6.68;;;6.68;;
2710;SDS011;20721;47.402;8.550;2022-11-15T04:03:06;6.01;;;6.01;;
2710;SDS011;20721;47.402;8.550;2022-11-15T04:07:06;5.41;;;5.41;;
2710;SDS011;20721;47.402;8.550;2022-11-15T04:08:06;5.85;;;5.85;;
2710;SDS011;20721;47.402;8.550;2022-11-15T04:12:06;5.49;;;5.49;;
2710;SDS011;20721;47.402;8.550;2022-11-15T04:13:06;5.58;;;5.58;;
2710;SDS011;20721;47.402;8.550;2022-11-15T04:15:20;5.39;;;5.39;;
2710;SDS011;20721;47.402;8.550;2022-11-15T04:16:06;5.39;;;5.39;;
2710;SDS011;20721;47.402;8.550;2022-11-15T04:17:06;5.94;;;5.94;;
2710;SDS011;20721;47.402;8.550;2022-11-15T04:18:06;4.90;;;4.90;;
2710;SDS011;20721;47.402;8.550;2022-11-15T04:19:16;5.68;;;5.68;;
2710;SDS011;20721;47.402;8.550;2022-11-15T04:20:19;5.40;;;5.40;;
2710;SDS011;20721;47.402;8.550;2022-11-15T04:21:17;5.21;;;5.21;;
2710;SDS011;20721;47.402;8.550;2022-11-15T04:22:17;5.37;;;5.37;;
2710;SDS011;20721;47.402;8.550;2022-11-15T04:23:19;5.35;;;5.35;;
2710;SDS011;20721;47.402;8.550;2022-11-15T04:24:16;4.60;;;4.60;;
2710;SDS011;20721;47.402;8.550;2022-11-15T04:25:06;4.60;;;4.60;;
2710;SDS011;20721;47.402;8.550;2022-11-15T04:26:10;5.31;;;5.31;;
2710;SDS011;20721;47.402;8.550;2022-11-15T04:27:06;5.26;;;5.26;;
2710;SDS011;20721;47.402;8.550;2022-11-15T04:28:06;5.13;;;5.13;;
2710;SDS011;20721;47.402;8.550;2022-11-15T04:29:16;6.11;;;6.11;;
2710;SDS011;20721;47.402;8.550;2022-11-15T04:30:07;6.11;;;6.11;;
2710;SDS011;20721;47.402;8.550;2022-11-15T04:31:06;5.31;;;5.31;;
2710;SDS011;20721;47.402;8.550;2022-11-15T04:32:06;5.24;;;5.24;;
2710;SDS011;20721;47.402;8.550;2022-11-15T04:33:06;5.76;;;5.76;;
2710;SDS011;20721;47.402;8.550;2022-11-15T04:34:06;5.06;;;5.06;;
2710;SDS011;20721;47.402;8.550;2022-11-15T04:35:06;5.55;;;5.55;;
2710;SDS011;20721;47.402;8.550;2022-11-15T04:37:16;5.51;;;5.51;;
2710;SDS011;20721;47.402;8.550;2022-11-15T04:38:07;5.51;;;5.51;;
2710;SDS011;20721;47.402;8.550;2022-11-15T04:39:06;4.76;;;4.76;;
2710;SDS011;20721;47.402;8.550;2022-11-15T04:40:06;4.94;;;4.94;;
2710;SDS011;20721;47.402;8.550;2022-11-15T04:41:06;4.77;;;4.77;;
2710;SDS011;20721;47.402;8.550;2022-11-15T04:42:06;5.30;;;5.30;;
2710;SDS011;20721;47.402;8.550;2022-11-15T04:43:14;4.77;;;4.77;;
2710;SDS011;20721;47.402;8.550;2022-11-15T04:44:06;4.77;;;4.77;;
2710;SDS011;20721;47.402;8.550;2022-11-15T04:45:06;5.41;;;5.41;;
2710;SDS011;20721;47.402;8.550;2022-11-15T04:47:06;4.67;;;4.67;;
2710;SDS011;20721;47.402;8.550;2022-11-15T04:48:06;5.39;;;5.39;;
2710;SDS011;20721;47.402;8.550;2022-11-15T04:49:09;5.66;;;5.66;;
2710;SDS011;20721;47.402;8.550;2022-11-15T04:50:06;5.64;;;5.63;;
2710;SDS011;20721;47.402;8.550;2022-11-15T04:57:06;6.38;;;6.38;;
2710;SDS011;20721;47.402;8.550;2022-11-15T04:58:09;5.78;;;5.78;;
2710;SDS011;20721;47.402;8.550;2022-11-15T04:59:06;5.56;;;5.56;;
2710;SDS011;20721;47.402;8.550;2022-11-15T05:00:08;5.71;;;5.71;;
2710;SDS011;20721;47.402;8.550;2022-11-15T05:01:07;5.54;;;5.54;;
2710;SDS011;20721;47.402;8.550;2022-11-15T05:02:06;6.42;;;6.40;;
2710;SDS011;20721;47.402;8.550;2022-11-15T05:03:16;5.57;;;5.57;;
2710;SDS011;20721;47.402;8.550;2022-11-15T05:04:17;6.29;;;6.27;;
2710;SDS011;20721;47.402;8.550;2022-11-15T05:05:06;6.29;;;6.27;;
2710;SDS011;20721;47.402;8.550;2022-11-15T05:07:06;5.67;;;5.60;;
2710;SDS011;20721;47.402;8.550;2022-11-15T05:10:06;4.92;;;4.92;;
2710;SDS011;20721;47.402;8.550;2022-11-15T05:11:06;4.81;;;4.81;;
2710;SDS011;20721;47.402;8.550;2022-11-15T05:12:06;4.49;;;4.49;;
2710;SDS011;20721;47.402;8.550;2022-11-15T05:13:06;5.37;;;5.37;;
2710;SDS011;20721;47.402;8.550;2022-11-15T05:16:06;6.34;;;6.34;;
2710;SDS011;20721;47.402;8.550;2022-11-15T05:17:06;5.66;;;5.66;;
2710;SDS011;20721;47.402;8.550;2022-11-15T05:18:08;5.63;;;5.63;;
2710;SDS011;20721;47.402;8.550;2022-11-15T05:20:06;5.41;;;5.41;;
2710;SDS011;20721;47.402;8.550;2022-11-15T05:21:13;5.05;;;5.05;;
2710;SDS011;20721;47.402;8.550;2022-11-15T05:23:06;6.05;;;6.01;;
2710;SDS011;20721;47.402;8.550;2022-11-15T05:24:06;5.60;;;5.60;;
2710;SDS011;20721;47.402;8.550;2022-11-15T05:26:10;5.39;;;5.39;;
2710;SDS011;20721;47.402;8.550;2022-11-15T05:27:06;5.46;;;5.46;;
2710;SDS011;20721;47.402;8.550;2022-11-15T05:28:06;5.65;;;5.65;;
2710;SDS011;20721;47.402;8.550;2022-11-15T05:29:08;5.71;;;5.71;;
2710;SDS011;20721;47.402;8.550;2022-11-15T05:31:11;5.08;;;5.08;;
2710;SDS011;20721;47.402;8.550;2022-11-15T05:33:06;5.53;;;5.53;;
2710;SDS011;20721;47.402;8.550;2022-11-15T05:34:08;5.50;;;5.50;;
2710;SDS011;20721;47.402;8.550;2022-11-15T05:35:06;6.11;;;6.11;;
2710;SDS011;20721;47.402;8.550;2022-11-15T05:37:06;5.90;;;5.90;;
2710;SDS011;20721;47.402;8.550;2022-11-15T05:39:06;5.60;;;5.60;;
2710;SDS011;20721;47.402;8.550;2022-11-15T05:41:06;5.16;;;5.16;;
2710;SDS011;20721;47.402;8.550;2022-11-15T05:42:13;6.29;;;6.25;;
2710;SDS011;20721;47.402;8.550;2022-11-15T05:43:07;6.29;;;6.25;;
2710;SDS011;20721;47.402;8.550;2022-11-15T05:44:07;6.16;;;6.16;;
2710;SDS011;20721;47.402;8.550;2022-11-15T05:45:07;5.18;;;5.18;;
2710;SDS011;20721;47.402;8.550;2022-11-15T05:46:06;5.72;;;5.72;;
2710;SDS011;20721;47.402;8.550;2022-11-15T05:50:07;5.50;;;5.50;;
2710;SDS011;20721;47.402;8.550;2022-11-15T05:51:06;5.25;;;5.25;;
2710;SDS011;20721;47.402;8.550;2022-11-15T05:52:08;4.97;;;4.97;;
2710;SDS011;20721;47.402;8.550;2022-11-15T05:53:12;5.51;;;5.51;;
2710;SDS011;20721;47.402;8.550;2022-11-15T05:54:07;5.51;;;5.51;;
2710;SDS011;20721;47.402;8.550;2022-11-15T05:55:07;5.34;;;5.34;;
2710;SDS011;20721;47.402;8.550;2022-11-15T05:56:06;5.59;;;5.59;;
2710;SDS011;20721;47.402;8.550;2022-11-15T05:57:06;5.28;;;5.28;;
2710;SDS011;20721;47.402;8.550;2022-11-15T05:58:06;5.09;;;5.09;;
2710;SDS011;20721;47.402;8.550;2022-11-15T06:00:06;5.25;;;5.25;;
2710;SDS011;20721;47.402;8.550;2022-11-15T06:01:06;5.38;;;5.38;;
2710;SDS011;20721;47.402;8.550;2022-11-15T06:02:06;5.07;;;5.07;;
2710;SDS011;20721;47.402;8.550;2022-11-15T06:03:06;5.83;;;5.83;;
2710;SDS011;20721;47.402;8.550;2022-11-15T06:07:07;4.76;;;4.76;;
2710;SDS011;20721;47.402;8.550;2022-11-15T06:08:07;4.89;;;4.89;;
2710;SDS011;20721;47.402;8.550;2022-11-15T06:09:06;4.86;;;4.86;;
2710;SDS011;20721;47.402;8.550;2022-11-15T06:10:06;4.70;;;4.70;;
2710;SDS011;20721;47.402;8.550;2022-11-15T06:11:06;4.95;;;4.95;;
2710;SDS011;20721;47.402;8.550;2022-11-15T06:12:06;4.92;;;4.92;;
2710;SDS011;20721;47.402;8.550;2022-11-15T06:13:10;4.53;;;4.53;;
2710;SDS011;20721;47.402;8.550;2022-11-15T06:14:06;4.84;;;4.84;;
2710;SDS011;20721;47.402;8.550;2022-11-15T06:15:06;4.79;;;4.79;;
2710;SDS011;20721;47.402;8.550;2022-11-15T06:16:06;4.94;;;4.94;;
2710;SDS011;20721;47.402;8.550;2022-11-15T06:17:06;4.38;;;4.38;;
2710;SDS011;20721;47.402;8.550;2022-11-15T06:18:07;4.84;;;4.84;;
2710;SDS011;20721;47.402;8.550;2022-11-15T06:19:06;5.33;;;5.33;;
2710;SDS011;20721;47.402;8.550;2022-11-15T06:20:06;5.29;;;5.29;;
2710;SDS011;20721;47.402;8.550;2022-11-15T06:24:06;4.64;;;4.64;;
2710;SDS011;20721;47.402;8.550;2022-11-15T06:25:11;4.85;;;4.85;;
2710;SDS011;20721;47.402;8.550;2022-11-15T06:26:07;4.85;;;4.85;;
2710;SDS011;20721;47.402;8.550;2022-11-15T06:29:06;4.73;;;4.73;;
2710;SDS011;20721;47.402;8.550;2022-11-15T06:30:06;4.81;;;4.81;;
2710;SDS011;20721;47.402;8.550;2022-11-15T06:31:14;4.63;;;4.63;;
2710;SDS011;20721;47.402;8.550;2022-11-15T06:32:06;4.63;;;4.63;;
2710;SDS011;20721;47.402;8.550;2022-11-15T06:33:10;4.43;;;4.43;;
2710;SDS011;20721;47.402;8.550;2022-11-15T06:34:06;4.43;;;4.43;;
2710;SDS011;20721;47.402;8.550;2022-11-15T06:35:06;4.60;;;4.60;;
2710;SDS011;20721;47.402;8.550;2022-11-15T06:36:10;3.96;;;3.96;;
2710;SDS011;20721;47.402;8.550;2022-11-15T06:37:06;3.96;;;3.96;;
2710;SDS011;20721;47.402;8.550;2022-11-15T06:38:11;4.70;;;4.70;;
2710;SDS011;20721;47.402;8.550;2022-11-15T06:39:06;4.70;;;4.70;;
2710;SDS011;20721;47.402;8.550;2022-11-15T06:40:07;4.57;;;4.57;;
2710;SDS011;20721;47.402;8.550;2022-11-15T06:41:15;4.92;;;4.92;;
2710;SDS011;20721;47.402;8.550;2022-11-15T06:42:07;4.92;;;4.92;;
2710;SDS011;20721;47.402;8.550;2022-11-15T06:43:09;5.02;;;5.02;;
2710;SDS011;20721;47.402;8.550;2022-11-15T06:45:06;4.66;;;4.66;;
2710;SDS011;20721;47.402;8.550;2022-11-15T06:46:08;4.42;;;4.42;;
2710;SDS011;20721;47.402;8.550;2022-11-15T06:47:06;4.48;;;4.48;;
2710;SDS011;20721;47.402;8.550;2022-11-15T06:48:07;4.69;;;4.69;;
2710;SDS011;20721;47.402;8.550;2022-11-15T06:49:06;5.04;;;5.04;;
2710;SDS011;20721;47.402;8.550;2022-11-15T06:50:06;4.86;;;4.86;;
2710;SDS011;20721;47.402;8.550;2022-11-15T06:51:07;4.92;;;4.92;;
2710;SDS011;20721;47.402;8.550;2022-11-15T06:52:06;4.68;;;4.68;;
2710;SDS011;20721;47.402;8.550;2022-11-15T06:53:11;4.90;;;4.90;;
2710;SDS011;20721;47.402;8.550;2022-11-15T06:54:06;4.90;;;4.90;;
2710;SDS011;20721;47.402;8.550;2022-11-15T06:55:06;4.88;;;4.88;;
2710;SDS011;20721;47.402;8.550;2022-11-15T06:56:10;5.06;;;5.06;;
2710;SDS011;20721;47.402;8.550;2022-11-15T06:57:06;4.97;;;4.97;;
2710;SDS011;20721;47.402;8.550;2022-11-15T06:58:06;4.77;;;4.77;;
2710;SDS011;20721;47.402;8.550;2022-11-15T06:59:06;5.07;;;5.07;;
2710;SDS011;20721;47.402;8.550;2022-11-15T07:00:06;4.95;;;4.95;;
2710;SDS011;20721;47.402;8.550;2022-11-15T07:02:10;5.52;;;5.52;;
2710;SDS011;20721;47.402;8.550;2022-11-15T07:05:06;5.71;;;5.71;;
2710;SDS011;20721;47.402;8.550;2022-11-15T07:06:07;5.54;;;5.54;;
2710;SDS011;20721;47.402;8.550;2022-11-15T07:07:06;6.40;;;6.40;;
2710;SDS011;20721;47.402;8.550;2022-11-15T07:11:08;5.61;;;5.61;;
2710;SDS011;20721;47.402;8.550;2022-11-15T07:12:06;6.12;;;6.12;;
2710;SDS011;20721;47.402;8.550;2022-11-15T07:13:06;6.55;;;6.55;;
2710;SDS011;20721;47.402;8.550;2022-11-15T07:14:06;7.02;;;7.02;;
2710;SDS011;20721;47.402;8.550;2022-11-15T07:17:06;6.41;;;6.41;;
2710;SDS011;20721;47.402;8.550;2022-11-15T07:18:10;6.05;;;6.05;;
2710;SDS011;20721;47.402;8.550;2022-11-15T07:19:08;5.80;;;5.80;;
2710;SDS011;20721;47.402;8.550;2022-11-15T07:20:06;5.35;;;5.35;;
2710;SDS011;20721;47.402;8.550;2022-11-15T07:22:06;4.98;;;4.98;;
2710;SDS011;20721;47.402;8.550;2022-11-15T07:23:10;5.94;;;5.94;;
2710;SDS011;20721;47.402;8.550;2022-11-15T07:24:06;5.16;;;5.16;;
2710;SDS011;20721;47.402;8.550;2022-11-15T07:25:07;5.42;;;5.42;;
2710;SDS011;20721;47.402;8.550;2022-11-15T07:26:07;5.32;;;5.32;;
2710;SDS011;20721;47.402;8.550;2022-11-15T07:27:06;5.93;;;5.93;;
2710;SDS011;20721;47.402;8.550;2022-11-15T07:28:07;5.60;;;5.60;;
2710;SDS011;20721;47.402;8.550;2022-11-15T07:29:06;6.00;;;6.00;;
2710;SDS011;20721;47.402;8.550;2022-11-15T07:30:06;6.09;;;6.09;;
2710;SDS011;20721;47.402;8.550;2022-11-15T07:31:07;5.87;;;5.86;;
2710;SDS011;20721;47.402;8.550;2022-11-15T07:32:06;5.52;;;5.52;;
2710;SDS011;20721;47.402;8.550;2022-11-15T07:33:07;5.84;;;5.84;;
2710;SDS011;20721;47.402;8.550;2022-11-15T07:34:06;6.01;;;6.01;;
2710;SDS011;20721;47.402;8.550;2022-11-15T07:35:06;6.58;;;6.58;;
2710;SDS011;20721;47.402;8.550;2022-11-15T07:36:10;6.01;;;6.01;;
2710;SDS011;20721;47.402;8.550;2022-11-15T07:37:06;6.47;;;6.47;;
2710;SDS011;20721;47.402;8.550;2022-11-15T07:38:08;6.34;;;6.34;;
2710;SDS011;20721;47.402;8.550;2022-11-15T07:39:06;7.30;;;7.29;;
2710;SDS011;20721;47.402;8.550;2022-11-15T07:40:07;7.76;;;7.76;;
2710;SDS011;20721;47.402;8.550;2022-11-15T07:41:07;6.90;;;6.90;;
2710;SDS011;20721;47.402;8.550;2022-11-15T07:42:16;8.05;;;8.04;;
2710;SDS011;20721;47.402;8.550;2022-11-15T07:43:15;7.99;;;7.99;;
2710;SDS011;20721;47.402;8.550;2022-11-15T07:44:07;7.99;;;7.99;;
2710;SDS011;20721;47.402;8.550;2022-11-15T07:45:06;7.65;;;7.65;;
2710;SDS011;20721;47.402;8.550;2022-11-15T07:46:14;9.42;;;9.42;;
2710;SDS011;20721;47.402;8.550;2022-11-15T07:47:08;9.42;;;9.42;;
2710;SDS011;20721;47.402;8.550;2022-11-15T07:48:06;9.54;;;9.54;;
2710;SDS011;20721;47.402;8.550;2022-11-15T07:49:07;8.43;;;8.43;;
2710;SDS011;20721;47.402;8.550;2022-11-15T07:50:06;8.92;;;8.90;;
2710;SDS011;20721;47.402;8.550;2022-11-15T07:51:06;8.25;;;8.22;;
2710;SDS011;20721;47.402;8.550;2022-11-15T07:52:06;8.60;;;8.57;;
2710;SDS011;20721;47.402;8.550;2022-11-15T07:53:07;9.15;;;9.11;;